Time;durP1;ratioP1;P1;durP2;ratioP2;P2;SDS_P1;SDS_P2;PMS_P1;PMS_P2;Temp;Humidity;BMP_temperature;BMP_pressure;BME280_temperature;BME280_humidity;BME280_pressure;Samples;Min_cycle;Max_cycle;Signal;HPM_P1;HPM_P2
2021/05/24 00:00:22;;;;;;;;;;;;;;;16.49;47.97;101428.28;5006029;28;96972;-82
2021/05/24 00:02:48;;;;;;;;;;;;;;;16.45;48.33;101424.94;5009517;28;97017;-81
2021/05/24 00:05:15;;;;;;;;;;;;;;;16.29;48.58;101421.28;5008642;28;98833;-81
2021/05/24 00:07:41;;;;;;;;;;;;;;;16.40;48.43;101424.31;5002366;28;98939;-81
2021/05/24 00:10:09;;;;;;;;;;;;;;;16.42;48.54;101419.72;4997390;28;98534;-81
2021/05/24 00:12:35;;;;;;;;;;;;;;;16.51;48.40;101421.97;5007361;28;98997;-81
2021/05/24 00:15:03;;;;;;;;;;;;;;;16.28;49.27;101420.41;5015359;28;97574;-80
2021/05/24 00:17:29;;;;;;;;;;;;;;;16.12;49.79;101418.56;5017244;28;98906;-81
2021/05/24 00:19:55;;;;;;;;;;;;;;;16.19;49.46;101420.00;5015552;28;96964;-81
2021/05/24 00:22:20;;;;;;;;;;;;;;;15.99;49.91;101412.94;5011029;28;97550;-81
2021/05/24 00:24:46;;;;;;;;;;;;;;;16.00;49.92;101413.81;5026023;28;99445;-81
2021/05/24 00:27:12;;;;;;;;;;;;;;;15.99;49.97;101410.28;5012492;28;98802;-81
2021/05/24 00:29:38;;;;;;;;;;;;;;;16.01;50.24;101408.41;5023706;28;96825;-80
2021/05/24 00:32:05;;;;;;;;;;;;;;;16.14;49.75;101403.38;5026253;28;96752;-80
2021/05/24 00:34:31;;;;;;;;;;;;;;;16.33;49.41;101397.06;5023297;28;98157;-81
2021/05/24 00:36:57;;;;;;;;;;;;;;;16.15;49.72;101392.59;5014100;28;97666;-81
2021/05/24 00:39:23;;;;;;;;;;;;;;;16.27;49.48;101397.38;5004946;28;97270;-81
2021/05/24 00:41:49;;;;;;;;;;;;;;;15.98;50.09;101397.88;5016136;28;97062;-81
2021/05/24 00:44:15;;;;;;;;;;;;;;;15.90;50.31;101387.59;5012582;28;98849;-80
2021/05/24 00:46:41;;;;;;;;;;;;;;;15.87;50.67;101378.88;5013660;28;99020;-81
2021/05/24 00:49:07;;;;;;;;;;;;;;;15.71;50.93;101376.06;5012709;28;96862;-80
2021/05/24 00:51:34;;;;;;;;;;;;;;;15.69;51.08;101374.41;5014524;28;97730;-81
2021/05/24 00:53:59;;;;;;;;;;;;;;;15.73;51.12;101373.34;5010389;28;98246;-81
2021/05/24 00:56:25;;;;;;;;;;;;;;;15.50;51.61;101361.03;5029870;28;98811;-81
2021/05/24 00:58:51;;;;;;;;;;;;;;;15.58;51.82;101363.38;5025126;28;97859;-82
2021/05/24 01:01:17;;;;;;;;;;;;;;;15.57;51.88;101353.66;5011615;28;98125;-82
2021/05/24 01:03:43;;;;;;;;;;;;;;;15.64;51.48;101353.31;5001739;28;97817;-82
2021/05/24 01:06:10;;;;;;;;;;;;;;;15.64;51.80;101352.44;5014104;28;98873;-82
2021/05/24 01:08:36;;;;;;;;;;;;;;;15.55;52.00;101345.78;5005496;28;96797;-81
2021/05/24 01:11:02;;;;;;;;;;;;;;;15.31;52.58;101347.72;5014655;28;97185;-80
2021/05/24 01:13:28;;;;;;;;;;;;;;;15.32;52.47;101340.59;5015726;28;100780;-82
2021/05/24 01:15:54;;;;;;;;;;;;;;;15.29;52.64;101338.94;5007921;28;98669;-81
2021/05/24 01:18:20;;;;;;;;;;;;;;;15.21;53.31;101354.41;5013598;28;97851;-81
2021/05/24 01:20:46;;;;;;;;;;;;;;;15.35;52.68;101346.66;5013920;28;98195;-81
2021/05/24 01:23:15;;;;;;;;;;;;;;;15.23;52.80;101346.34;5002834;28;98883;-80
2021/05/24 01:25:42;;;;;;;;;;;;;;;15.32;52.82;101346.78;4998519;28;97862;-81
2021/05/24 01:28:08;;;;;;;;;;;;;;;15.38;52.70;101349.16;5010359;28;97139;-81
2021/05/24 01:30:35;;;;;;;;;;;;;;;15.51;52.60;101349.47;5009549;28;96928;-81
2021/05/24 01:33:01;;;;;;;;;;;;;;;15.61;52.32;101348.16;5008791;28;98766;-81
2021/05/24 01:35:26;;;;;;;;;;;;;;;15.36;52.73;101355.50;5017997;28;99103;-81
2021/05/24 01:37:52;;;;;;;;;;;;;;;15.31;52.80;101355.69;5016609;28;96792;-81
2021/05/24 01:40:20;;;;;;;;;;;;;;;15.53;52.21;101348.50;5014772;28;96748;-81
2021/05/24 01:42:46;;;;;;;;;;;;;;;15.52;52.14;101354.75;5010015;28;98863;-81
2021/05/24 01:45:13;;;;;;;;;;;;;;;15.23;52.93;101357.00;5003283;28;99239;-81
2021/05/24 01:47:39;;;;;;;;;;;;;;;15.13;53.02;101345.88;5015782;28;97773;-81
2021/05/24 01:50:05;;;;;;;;;;;;;;;15.32;52.41;101341.47;5018026;28;96741;-82
2021/05/24 01:52:31;;;;;;;;;;;;;;;15.28;52.70;101350.53;5015446;28;98896;-82
2021/05/24 01:54:57;;;;;;;;;;;;;;;15.20;53.11;101346.47;5011283;28;98823;-81
2021/05/24 01:57:23;;;;;;;;;;;;;;;15.19;52.89;101344.75;5012433;28;97261;-81
2021/05/24 01:59:49;;;;;;;;;;;;;;;15.17;52.57;101350.13;5000806;28;96905;-81
2021/05/24 02:02:16;;;;;;;;;;;;;;;15.12;53.20;101354.81;5006657;28;99010;-81
2021/05/24 02:04:42;;;;;;;;;;;;;;;14.98;53.33;101346.56;5017430;28;99042;-81
2021/05/24 02:07:07;;;;;;;;;;;;;;;15.04;53.43;101351.59;5010657;28;96817;-81
2021/05/24 02:09:35;;;;;;;;;;;;;;;15.13;53.23;101337.91;5018044;28;97190;-81
2021/05/24 02:12:00;;;;;;;;;;;;;;;15.24;53.01;101342.72;5016157;28;99801;-81
2021/05/24 02:14:27;;;;;;;;;;;;;;;15.25;53.03;101349.78;5017187;28;99345;-81
2021/05/24 02:16:54;;;;;;;;;;;;;;;15.16;53.25;101345.75;5007040;28;97251;-81
2021/05/24 02:19:20;;;;;;;;;;;;;;;15.12;53.25;101349.47;5010508;28;96817;-80
2021/05/24 02:21:46;;;;;;;;;;;;;;;14.98;53.62;101349.22;5011953;28;97943;-81
2021/05/24 02:24:13;;;;;;;;;;;;;;;14.99;53.61;101353.63;5014940;28;99265;-81
2021/05/24 02:26:40;;;;;;;;;;;;;;;15.00;53.51;101350.91;5007069;28;96896;-80
2021/05/24 02:29:06;;;;;;;;;;;;;;;14.97;53.58;101340.38;5021575;28;98562;-81
2021/05/24 02:31:33;;;;;;;;;;;;;;;14.91;53.72;101339.78;5021885;28;98846;-80
2021/05/24 02:33:59;;;;;;;;;;;;;;;14.91;53.68;101331.78;5022806;28;98773;-81
2021/05/24 02:36:26;;;;;;;;;;;;;;;14.86;53.89;101336.47;5015261;28;96743;-81
2021/05/24 02:38:52;;;;;;;;;;;;;;;14.94;53.66;101335.19;5016370;28;97237;-80
2021/05/24 02:41:18;;;;;;;;;;;;;;;15.01;53.63;101336.66;5019066;28;102604;-81
2021/05/24 02:43:44;;;;;;;;;;;;;;;14.85;53.69;101337.38;5019732;28;98798;-80
2021/05/24 02:46:10;;;;;;;;;;;;;;;14.80;53.80;101332.28;5016751;28;97147;-80
2021/05/24 02:48:37;;;;;;;;;;;;;;;14.85;53.92;101329.41;5015054;28;98896;-80
2021/05/24 02:51:03;;;;;;;;;;;;;;;14.77;53.90;101327.94;5016217;28;99307;-80
2021/05/24 02:53:28;;;;;;;;;;;;;;;14.79;54.01;101335.00;5014025;28;99146;-80
2021/05/24 02:55:54;;;;;;;;;;;;;;;14.86;54.15;101329.34;5012079;28;97411;-80
2021/05/24 02:58:20;;;;;;;;;;;;;;;14.91;54.03;101327.34;5011948;28;98384;-81
2021/05/24 03:00:46;;;;;;;;;;;;;;;15.02;53.45;101329.53;5015041;28;101614;-80
2021/05/24 03:03:13;;;;;;;;;;;;;;;14.71;54.23;101327.34;5016940;28;98775;-81
2021/05/24 03:05:40;;;;;;;;;;;;;;;14.85;53.85;101327.59;5017181;28;97021;-80
2021/05/24 03:08:05;;;;;;;;;;;;;;;14.82;53.77;101325.09;5006426;28;97810;-80
2021/05/24 03:10:31;;;;;;;;;;;;;;;14.97;53.33;101328.84;5017220;28;98951;-80
2021/05/24 03:12:57;;;;;;;;;;;;;;;14.98;53.07;101326.13;5008570;28;99152;-80
2021/05/24 03:15:24;;;;;;;;;;;;;;;14.81;53.80;101330.47;5008386;28;97275;-80
2021/05/24 03:17:49;;;;;;;;;;;;;;;14.74;53.82;101340.53;5014564;28;96900;-81
2021/05/24 03:20:16;;;;;;;;;;;;;;;14.70;53.78;101336.28;5016324;28;98920;-80
2021/05/24 03:22:43;;;;;;;;;;;;;;;14.86;53.72;101339.13;5022077;28;98895;-81
2021/05/24 03:25:11;;;;;;;;;;;;;;;14.89;53.50;101336.34;5012274;28;96793;-81
2021/05/24 03:27:36;;;;;;;;;;;;;;;14.79;53.53;101335.84;5015140;28;97767;-81
2021/05/24 03:30:03;;;;;;;;;;;;;;;14.73;53.66;101334.34;5003331;28;99279;-81
2021/05/24 03:32:29;;;;;;;;;;;;;;;14.85;53.45;101337.38;5014853;28;98881;-80
2021/05/24 03:34:55;;;;;;;;;;;;;;;14.83;53.25;101339.28;5016476;28;96948;-81
2021/05/24 03:37:21;;;;;;;;;;;;;;;14.79;53.51;101346.50;5017957;28;96824;-81
2021/05/24 03:39:47;;;;;;;;;;;;;;;14.70;53.91;101347.75;5017329;28;98311;-80
2021/05/24 03:42:13;;;;;;;;;;;;;;;14.89;53.15;101341.66;5017841;28;98912;-80
2021/05/24 03:44:43;;;;;;;;;;;;;;;14.70;53.46;101338.94;5026634;28;96893;-80
2021/05/24 03:47:08;;;;;;;;;;;;;;;14.88;53.03;101339.94;5020649;28;96716;-81
2021/05/24 03:49:34;;;;;;;;;;;;;;;14.96;52.75;101335.13;5008897;28;99245;-81
2021/05/24 03:52:00;;;;;;;;;;;;;;;15.22;52.10;101334.84;5024138;28;97491;-81
2021/05/24 03:54:26;;;;;;;;;;;;;;;15.13;52.46;101340.56;5020631;28;96732;-81
2021/05/24 03:56:52;;;;;;;;;;;;;;;15.08;51.98;101338.13;5019940;28;96994;-81
2021/05/24 03:59:18;;;;;;;;;;;;;;;15.10;51.82;101338.03;5006046;28;101281;-81
2021/05/24 04:01:44;;;;;;;;;;;;;;;15.26;51.49;101341.75;5012424;28;98884;-81
2021/05/24 04:04:10;;;;;;;;;;;;;;;15.30;51.54;101338.00;5015441;28;96728;-80
2021/05/24 04:06:37;;;;;;;;;;;;;;;15.26;51.19;101341.75;5005723;28;96817;-81
2021/05/24 04:09:04;;;;;;;;;;;;;;;15.61;50.55;101341.94;5012902;28;98939;-81
2021/05/24 04:11:30;;;;;;;;;;;;;;;15.41;50.85;101341.03;5005207;28;97791;-81
2021/05/24 04:13:56;;;;;;;;;;;;;;;15.53;50.31;101334.31;5012421;28;96819;-81
2021/05/24 04:16:22;;;;;;;;;;;;;;;15.34;50.72;101334.28;5009952;28;96848;-81
2021/05/24 04:18:50;;;;;;;;;;;;;;;15.77;49.85;101334.94;5008048;28;98940;-81
2021/05/24 04:21:16;;;;;;;;;;;;;;;15.74;49.31;101332.44;5018471;28;99462;-81
2021/05/24 04:23:43;;;;;;;;;;;;;;;15.79;49.66;101344.59;5014776;28;96828;-81
2021/05/24 04:26:08;;;;;;;;;;;;;;;15.68;49.72;101338.94;5003899;28;96879;-81
2021/05/24 04:28:35;;;;;;;;;;;;;;;15.85;49.20;101346.97;4995104;28;98877;-81
2021/05/24 04:31:01;;;;;;;;;;;;;;;15.95;48.79;101342.06;5009853;28;98815;-81
2021/05/24 04:33:27;;;;;;;;;;;;;;;16.03;48.70;101350.53;5016296;28;97023;-80
2021/05/24 04:35:53;;;;;;;;;;;;;;;16.25;47.90;101351.25;5025920;28;97004;-80
2021/05/24 04:38:19;;;;;;;;;;;;;;;16.33;47.70;101348.19;5025395;28;98857;-81
2021/05/24 04:40:46;;;;;;;;;;;;;;;16.35;47.52;101347.16;5024357;28;100181;-80
2021/05/24 04:43:11;;;;;;;;;;;;;;;16.29;47.59;101347.47;5021256;28;98219;-81
2021/05/24 04:45:37;;;;;;;;;;;;;;;16.43;47.33;101343.25;5028563;28;97548;-79
2021/05/24 04:48:05;;;;;;;;;;;;;;;16.75;46.67;101337.16;5032077;28;100375;-80
2021/05/24 04:50:30;;;;;;;;;;;;;;;16.78;46.72;101330.81;5033243;28;99294;-80
2021/05/24 04:52:56;;;;;;;;;;;;;;;16.94;45.95;101339.72;5022342;28;96728;-80
2021/05/24 04:55:22;;;;;;;;;;;;;;;17.06;45.47;101344.47;5023628;28;98822;-81
2021/05/24 04:57:48;;;;;;;;;;;;;;;16.94;45.64;101339.72;5027866;28;100305;-80
2021/05/24 05:00:14;;;;;;;;;;;;;;;17.27;44.92;101334.41;5019317;28;97920;-80
2021/05/24 05:02:40;;;;;;;;;;;;;;;17.62;44.16;101333.38;5024077;28;97765;-78
2021/05/24 05:05:08;;;;;;;;;;;;;;;19.79;39.77;101327.47;5022768;28;96715;-80
2021/05/24 05:07:33;;;;;;;;;;;;;;;21.87;35.40;101338.06;5015044;28;101277;-81
2021/05/24 05:10:01;;;;;;;;;;;;;;;22.63;33.38;101331.53;5015657;28;99858;-80
2021/05/24 05:12:26;;;;;;;;;;;;;;;23.33;31.97;101332.28;5010858;28;97235;-81
2021/05/24 05:14:52;;;;;;;;;;;;;;;23.08;32.09;101340.59;5009302;28;96907;-79
2021/05/24 05:17:18;;;;;;;;;;;;;;;21.24;35.25;101340.03;5015033;28;98158;-79
2021/05/24 05:19:44;;;;;;;;;;;;;;;19.86;37.58;101350.25;5016567;28;99258;-80
2021/05/24 05:22:10;;;;;;;;;;;;;;;19.47;38.45;101346.47;5018458;28;96823;-80
2021/05/24 05:24:36;;;;;;;;;;;;;;;19.39;38.67;101348.75;5019460;28;96929;-79
2021/05/24 05:27:02;;;;;;;;;;;;;;;19.04;39.17;101345.56;5014476;28;99013;-79
2021/05/24 05:29:28;;;;;;;;;;;;;;;18.93;39.63;101353.38;5018505;28;98742;-80
2021/05/24 05:31:54;;;;;;;;;;;;;;;18.80;39.87;101357.75;5016725;28;96761;-80
2021/05/24 05:34:20;;;;;;;;;;;;;;;18.44;40.26;101355.44;5018506;28;96917;-81
2021/05/24 05:36:46;;;;;;;;;;;;;;;18.65;40.08;101347.97;5015040;28;97864;-80
2021/05/24 05:39:12;;;;;;;;;;;;;;;18.38;40.79;101345.06;5017025;28;99100;-82
2021/05/24 05:41:38;;;;;;;;;;;;;;;18.92;39.66;101350.78;5015580;28;97592;-80
2021/05/24 05:44:04;;;;;;;;;;;;;;;18.20;40.52;101355.03;5020425;28;96793;-80
2021/05/24 05:46:30;;;;;;;;;;;;;;;18.41;40.54;101360.94;5020308;28;99296;-82
2021/05/24 05:48:55;;;;;;;;;;;;;;;18.26;40.75;101356.47;5017750;28;98890;-80
2021/05/24 05:51:21;;;;;;;;;;;;;;;18.75;39.75;101353.63;5013162;28;97471;-81
2021/05/24 05:53:47;;;;;;;;;;;;;;;18.74;39.86;101351.91;5017307;28;96849;-80
2021/05/24 05:56:14;;;;;;;;;;;;;;;19.00;39.71;101345.84;5016254;28;101037;-81
2021/05/24 05:58:40;;;;;;;;;;;;;;;19.25;38.91;101354.09;5018067;28;98268;-81
2021/05/24 06:01:06;;;;;;;;;;;;;;;19.39;38.79;101361.28;5015574;28;96809;-81
2021/05/24 06:03:32;;;;;;;;;;;;;;;19.39;38.58;101367.50;5016353;28;96886;-82
2021/05/24 06:05:58;;;;;;;;;;;;;;;19.38;38.68;101364.91;5017251;28;98458;-82
2021/05/24 06:08:24;;;;;;;;;;;;;;;19.41;38.69;101362.03;5016374;28;98303;-80
2021/05/24 06:10:49;;;;;;;;;;;;;;;19.83;37.85;101363.84;5015630;28;96799;-80
2021/05/24 06:13:16;;;;;;;;;;;;;;;19.74;38.02;101361.78;5013810;28;97265;-80
2021/05/24 06:15:43;;;;;;;;;;;;;;;19.87;37.83;101363.56;5024418;28;97847;-80
2021/05/24 06:18:09;;;;;;;;;;;;;;;21.00;35.68;101367.59;5017321;28;97753;-80
2021/05/24 06:20:35;;;;;;;;;;;;;;;21.70;34.02;101368.03;5011147;28;96819;-81
2021/05/24 06:23:00;;;;;;;;;;;;;;;20.76;35.66;101363.91;5023388;28;96836;-81
2021/05/24 06:25:26;;;;;;;;;;;;;;;20.04;36.59;101364.28;5017488;28;99377;-81
2021/05/24 06:27:52;;;;;;;;;;;;;;;19.91;37.01;101353.50;5012596;28;98548;-81
2021/05/24 06:30:19;;;;;;;;;;;;;;;20.10;36.83;101369.25;5020232;28;96567;-81
2021/05/24 06:32:45;;;;;;;;;;;;;;;20.37;36.40;101358.56;5022524;28;96853;-81
2021/05/24 06:35:11;;;;;;;;;;;;;;;20.69;35.71;101362.63;5012649;28;98789;-80
2021/05/24 06:37:37;;;;;;;;;;;;;;;20.68;35.94;101360.88;5027329;28;98434;-81
2021/05/24 06:40:03;;;;;;;;;;;;;;;21.66;34.33;101360.31;5021545;28;96777;-81
2021/05/24 06:42:29;;;;;;;;;;;;;;;22.54;32.85;101360.00;5025579;28;96924;-80
2021/05/24 06:44:55;;;;;;;;;;;;;;;22.68;32.39;101353.56;5024369;28;99614;-81
2021/05/24 06:47:23;;;;;;;;;;;;;;;23.03;31.36;101350.88;5017023;28;98994;-80
2021/05/24 06:49:49;;;;;;;;;;;;;;;23.57;30.79;101352.91;5030629;28;96811;-82
2021/05/24 06:52:16;;;;;;;;;;;;;;;22.95;31.35;101347.91;5029765;28;96772;-80
2021/05/24 06:54:42;;;;;;;;;;;;;;;23.00;31.78;101346.59;5023405;28;99517;-80
2021/05/24 06:57:08;;;;;;;;;;;;;;;22.21;32.67;101352.63;5019862;28;98021;-80
2021/05/24 06:59:34;;;;;;;;;;;;;;;22.38;32.95;101347.81;5018715;28;96783;-81
2021/05/24 07:02:01;;;;;;;;;;;;;;;22.20;32.81;101350.03;5020463;28;97896;-81
2021/05/24 07:04:28;;;;;;;;;;;;;;;21.84;33.55;101348.22;5018256;28;96990;-80
2021/05/24 07:06:54;;;;;;;;;;;;;;;21.85;33.47;101353.50;5018404;28;98061;-79
2021/05/24 07:09:19;;;;;;;;;;;;;;;21.79;33.46;101339.63;5022896;28;96757;-80
2021/05/24 07:11:45;;;;;;;;;;;;;;;21.99;33.12;101335.50;5017199;28;96872;-80
2021/05/24 07:14:11;;;;;;;;;;;;;;;21.55;33.70;101333.31;5021291;28;97125;-79
2021/05/24 07:16:37;;;;;;;;;;;;;;;21.92;33.28;101334.22;5024831;28;97671;-81
2021/05/24 07:19:03;;;;;;;;;;;;;;;22.17;33.00;101340.38;5015411;28;97218;-80
2021/05/24 07:21:30;;;;;;;;;;;;;;;22.05;33.08;101325.16;5019277;28;98640;-82
2021/05/24 07:23:56;;;;;;;;;;;;;;;22.60;32.43;101329.91;5018061;28;98593;-80
2021/05/24 07:26:23;;;;;;;;;;;;;;;22.24;32.89;101324.63;5015010;28;99605;-80
2021/05/24 07:28:49;;;;;;;;;;;;;;;22.20;32.86;101307.84;5015294;28;96929;-81
2021/05/24 07:31:15;;;;;;;;;;;;;;;22.73;31.89;101294.84;5022288;28;97035;-80
2021/05/24 07:33:41;;;;;;;;;;;;;;;22.37;32.46;101306.59;5018868;28;100920;-80
2021/05/24 07:36:07;;;;;;;;;;;;;;;22.31;32.48;101301.66;5019959;28;98090;-80
2021/05/24 07:38:34;;;;;;;;;;;;;;;22.32;32.39;101303.34;5018128;28;96992;-81
2021/05/24 07:41:00;;;;;;;;;;;;;;;22.76;31.49;101308.09;5015728;28;97021;-80
2021/05/24 07:43:26;;;;;;;;;;;;;;;21.90;32.14;101295.78;5013491;28;98583;-81
2021/05/24 07:45:52;;;;;;;;;;;;;;;22.40;32.04;101298.25;5016485;28;99154;-80
2021/05/24 07:48:21;;;;;;;;;;;;;;;22.82;31.54;101293.28;5022314;28;97540;-81
2021/05/24 07:50:47;;;;;;;;;;;;;;;22.46;31.38;101295.09;5023565;28;96906;-79
2021/05/24 07:53:13;;;;;;;;;;;;;;;22.22;31.89;101296.97;5021201;28;99841;-79
2021/05/24 07:55:40;;;;;;;;;;;;;;;22.68;31.11;101291.63;5020427;28;98833;-79
2021/05/24 07:58:05;;;;;;;;;;;;;;;22.69;31.29;101287.94;5023423;28;99574;-79
2021/05/24 08:00:31;;;;;;;;;;;;;;;22.85;30.71;101287.63;5024872;28;96922;-80
2021/05/24 08:02:57;;;;;;;;;;;;;;;23.01;30.40;101280.94;5020545;28;97926;-80
2021/05/24 08:05:23;;;;;;;;;;;;;;;23.05;30.22;101284.22;5016229;28;97807;-80
2021/05/24 08:07:49;;;;;;;;;;;;;;;22.91;30.37;101273.66;5009411;28;96898;-79
2021/05/24 08:10:19;;;;;;;;;;;;;;;21.93;30.55;101274.88;5003303;28;97682;-79
2021/05/24 08:12:55;;;;;;;;;;;;;;;22.52;30.27;101280.28;5011329;28;103376;-80
2021/05/24 08:15:29;;;;;;;;;;;;;;;23.24;29.43;101273.69;5002915;28;97847;-81
2021/05/24 08:17:55;;;;;;;;;;;;;;;23.48;29.83;101281.69;5008358;28;97716;-80
2021/05/24 08:20:21;;;;;;;;;;;;;;;22.83;29.82;101271.59;5010412;28;96796;-80
2021/05/24 08:22:47;;;;;;;;;;;;;;;22.26;30.83;101274.22;5014881;28;98980;-80
2021/05/24 08:25:13;;;;;;;;;;;;;;;21.41;32.07;101286.78;5017401;28;98116;-79
2021/05/24 08:27:39;;;;;;;;;;;;;;;22.40;30.49;101268.63;5017496;28;96806;-79
2021/05/24 08:30:07;;;;;;;;;;;;;;;23.19;29.27;101262.41;5006628;28;96819;-79
2021/05/24 08:32:33;;;;;;;;;;;;;;;23.60;28.42;101255.56;5003482;28;100546;-79
2021/05/24 08:34:59;;;;;;;;;;;;;;;23.19;29.26;101258.88;5004079;28;97965;-80
2021/05/24 08:37:25;;;;;;;;;;;;;;;22.93;29.72;101252.84;5005994;28;99071;-79
2021/05/24 08:39:51;;;;;;;;;;;;;;;23.12;29.68;101255.81;5008196;28;99944;-77
2021/05/24 08:42:16;;;;;;;;;;;;;;;23.74;28.83;101245.34;5006851;28;97623;-79
2021/05/24 08:44:43;;;;;;;;;;;;;;;23.62;29.43;101248.19;5014232;28;98917;-79
2021/05/24 08:47:10;;;;;;;;;;;;;;;22.77;29.57;101244.28;5012274;28;96813;-79
2021/05/24 08:49:36;;;;;;;;;;;;;;;22.66;29.40;101248.63;5013534;28;96667;-78
2021/05/24 08:52:02;;;;;;;;;;;;;;;23.10;29.29;101241.59;5013081;28;98876;-78
2021/05/24 08:54:28;;;;;;;;;;;;;;;23.26;28.42;101228.59;5012200;28;98852;-79
2021/05/24 08:56:54;;;;;;;;;;;;;;;22.64;29.01;101242.50;5006372;28;96844;-79
2021/05/24 08:59:20;;;;;;;;;;;;;;;22.75;29.30;101230.06;5010021;28;96843;-79
2021/05/24 09:01:45;;;;;;;;;;;;;;;23.17;28.78;101229.31;5004783;28;99348;-80
2021/05/24 09:04:12;;;;;;;;;;;;;;;22.71;29.67;101223.19;5013165;28;98942;-78
2021/05/24 09:06:39;;;;;;;;;;;;;;;23.47;28.51;101227.84;5009036;28;98184;-77
2021/05/24 09:09:09;;;;;;;;;;;;;;;23.04;28.29;101217.81;5013915;28;96735;-79
2021/05/24 09:11:35;;;;;;;;;;;;;;;22.71;29.55;101224.00;5019163;28;98848;-77
2021/05/24 09:14:01;;;;;;;;;;;;;;;22.94;28.38;101216.84;5009523;28;98841;-79
2021/05/24 09:16:27;;;;;;;;;;;;;;;23.03;28.33;101208.03;5009296;28;97056;-78
2021/05/24 09:19:09;;;;;;;;;;;;;;;23.48;27.71;101214.25;5007585;28;97518;-78
2021/05/24 09:21:36;;;;;;;;;;;;;;;23.50;28.02;101206.06;5008122;28;99988;-79
2021/05/24 09:24:17;;;;;;;;;;;;;;;23.34;27.81;101209.09;5013432;28;98912;-79
2021/05/24 09:26:42;;;;;;;;;;;;;;;23.47;27.16;101207.16;5003148;28;96799;-79
2021/05/24 09:29:08;;;;;;;;;;;;;;;23.70;26.48;101202.53;5014643;28;97238;-79
2021/05/24 09:31:34;;;;;;;;;;;;;;;23.69;26.18;101208.94;5014763;28;99139;-79
2021/05/24 09:34:00;;;;;;;;;;;;;;;23.31;25.93;101202.09;5016512;28;97798;-79
2021/05/24 09:36:27;;;;;;;;;;;;;;;23.39;25.92;101190.69;5010543;28;96977;-79
2021/05/24 09:38:59;;;;;;;;;;;;;;;24.21;24.45;101182.00;5017179;28;96856;-79
2021/05/24 09:41:25;;;;;;;;;;;;;;;23.96;24.59;101190.41;5004726;28;98943;-81
2021/05/24 09:43:52;;;;;;;;;;;;;;;24.29;24.39;101181.31;5006753;28;98965;-80
2021/05/24 09:46:19;;;;;;;;;;;;;;;23.87;24.37;101183.13;5002261;28;97472;-80
2021/05/24 09:48:46;;;;;;;;;;;;;;;24.33;25.05;101176.53;5013625;28;97020;-79
2021/05/24 09:51:13;;;;;;;;;;;;;;;23.78;24.91;101165.84;5012792;28;97405;-79
2021/05/24 09:53:40;;;;;;;;;;;;;;;23.15;25.60;101163.91;5014678;28;98945;-77
2021/05/24 09:56:08;;;;;;;;;;;;;;;23.29;26.53;101165.50;5011075;28;96861;-79
2021/05/24 09:58:34;;;;;;;;;;;;;;;23.27;26.71;101162.06;5012806;28;97113;-80
2021/05/24 10:01:14;;;;;;;;;;;;;;;23.26;26.81;101155.81;5015187;28;98892;-80
2021/05/24 10:03:40;;;;;;;;;;;;;;;23.12;27.15;101149.81;5020188;28;99697;-80
2021/05/24 10:06:07;;;;;;;;;;;;;;;23.77;26.88;101153.34;5025085;28;97679;-79
2021/05/24 10:08:33;;;;;;;;;;;;;;;23.69;26.41;101149.59;5018792;28;96899;-81
2021/05/24 10:10:59;;;;;;;;;;;;;;;23.01;27.16;101153.41;5016944;28;100793;-80
2021/05/24 10:13:28;;;;;;;;;;;;;;;23.25;26.68;101148.69;5025235;28;97937;-80
2021/05/24 10:15:59;;;;;;;;;;;;;;;23.43;26.87;101143.63;5018673;28;96807;-80
2021/05/24 10:18:25;;;;;;;;;;;;;;;23.32;27.13;101136.41;5020537;28;96709;-80
2021/05/24 10:20:52;;;;;;;;;;;;;;;23.62;26.75;101129.50;5028463;28;99433;-81
2021/05/24 10:23:18;;;;;;;;;;;;;;;24.04;25.83;101111.47;5017569;28;98401;-82
2021/05/24 10:25:44;;;;;;;;;;;;;;;23.89;26.32;101118.22;5019123;28;96795;-82
2021/05/24 10:28:11;;;;;;;;;;;;;;;24.38;25.06;101113.00;5026779;28;96952;-80
2021/05/24 10:30:38;;;;;;;;;;;;;;;24.11;25.21;101118.06;5018134;28;98725;-80
2021/05/24 10:33:06;;;;;;;;;;;;;;;23.65;25.08;101110.34;5025723;28;99201;-80
2021/05/24 10:35:35;;;;;;;;;;;;;;;23.90;24.72;101109.97;5020619;28;96881;-82
2021/05/24 10:38:16;;;;;;;;;;;;;;;24.27;24.18;101096.03;5021119;28;96901;-81
2021/05/24 10:40:44;;;;;;;;;;;;;;;24.35;23.94;101097.06;5009310;28;97669;-80
2021/05/24 10:43:13;;;;;;;;;;;;;;;24.22;24.32;101088.31;5014226;28;98864;-81
2021/05/24 10:45:39;;;;;;;;;;;;;;;24.11;23.65;101086.53;5023064;28;96729;-80
2021/05/24 10:48:05;;;;;;;;;;;;;;;23.79;24.17;101077.66;5016268;28;96915;-80
2021/05/24 10:50:32;;;;;;;;;;;;;;;24.06;24.12;101069.88;5016524;28;98956;-81
2021/05/24 10:52:59;;;;;;;;;;;;;;;23.62;23.90;101075.56;5038245;27;98490;-81
2021/05/24 10:55:38;;;;;;;;;;;;;;;23.66;24.53;101061.66;5033414;27;96644;-81
2021/05/24 10:58:07;;;;;;;;;;;;;;;23.31;24.91;101045.72;5024444;28;97139;-81
2021/05/24 11:00:51;;;;;;;;;;;;;;;23.63;24.74;101053.00;5023688;28;99057;-82
2021/05/24 11:03:17;;;;;;;;;;;;;;;23.17;24.08;101056.81;5013802;28;98838;-81
2021/05/24 11:05:46;;;;;;;;;;;;;;;23.24;23.75;101041.81;5015505;28;96880;-83
2021/05/24 11:08:12;;;;;;;;;;;;;;;22.81;23.92;101051.75;5010855;28;97113;-81
2021/05/24 11:10:46;;;;;;;;;;;;;;;23.32;23.57;101039.34;5016790;28;99600;-82
2021/05/24 11:13:22;;;;;;;;;;;;;;;23.33;24.71;101046.47;5006648;28;99916;-80
2021/05/24 11:15:49;;;;;;;;;;;;;;;23.75;24.72;101047.41;5015283;28;97123;-80
2021/05/24 11:18:30;;;;;;;;;;;;;;;23.90;24.86;101049.75;5006745;28;97287;-81
2021/05/24 11:21:14;;;;;;;;;;;;;;;23.48;24.65;101038.97;5015005;28;98750;-81
2021/05/24 11:23:48;;;;;;;;;;;;;;;24.29;24.59;101040.03;5019748;28;98447;-81
2021/05/24 11:26:16;;;;;;;;;;;;;;;23.56;25.28;101030.22;5009172;28;96893;-81
2021/05/24 11:28:43;;;;;;;;;;;;;;;23.26;25.52;101036.31;5012408;28;96773;-81
2021/05/24 11:31:11;;;;;;;;;;;;;;;23.30;24.72;101003.56;5010692;28;99283;-80
2021/05/24 11:33:38;;;;;;;;;;;;;;;23.55;24.98;101018.56;5011315;28;98901;-82
2021/05/24 11:36:04;;;;;;;;;;;;;;;23.49;25.33;101000.22;5016313;28;96903;-81
2021/05/24 11:38:30;;;;;;;;;;;;;;;23.85;25.49;100993.47;5016073;28;96850;-80
2021/05/24 11:41:08;;;;;;;;;;;;;;;23.25;26.98;101000.41;5014190;28;99175;-81
2021/05/24 11:43:34;;;;;;;;;;;;;;;23.46;27.00;100997.75;5018857;28;99126;-81
2021/05/24 11:46:05;;;;;;;;;;;;;;;24.05;26.33;100998.00;5011450;28;96776;-81
2021/05/24 11:48:36;;;;;;;;;;;;;;;23.54;26.34;100999.81;5006624;28;96961;-81
2021/05/24 11:51:04;;;;;;;;;;;;;;;23.89;25.69;100986.00;5011553;28;98345;-82
2021/05/24 11:53:29;;;;;;;;;;;;;;;24.04;25.43;100988.19;5011408;28;98650;-81
2021/05/24 11:56:05;;;;;;;;;;;;;;;24.38;24.91;100988.78;5006036;28;97746;-82
2021/05/24 11:58:31;;;;;;;;;;;;;;;24.68;24.91;100978.91;5016552;28;97680;-81
2021/05/24 12:01:01;;;;;;;;;;;;;;;25.22;24.69;100978.41;5015958;28;98883;-81
2021/05/24 12:03:27;;;;;;;;;;;;;;;24.65;24.28;100971.06;5008054;28;99844;-81
2021/05/24 12:05:56;;;;;;;;;;;;;;;25.14;23.91;100972.88;5010286;28;97602;-82
2021/05/24 12:08:22;;;;;;;;;;;;;;;24.57;24.05;100960.97;5009828;28;97535;-83
2021/05/24 12:10:58;;;;;;;;;;;;;;;24.88;23.87;100965.25;5014634;28;98090;-82
2021/05/24 12:13:24;;;;;;;;;;;;;;;24.25;24.49;100963.84;5014400;28;98000;-80
2021/05/24 12:15:49;;;;;;;;;;;;;;;24.05;23.96;100954.81;5024444;28;96954;-79
2021/05/24 12:18:15;;;;;;;;;;;;;;;24.52;23.69;100971.34;5024516;28;96589;-82
2021/05/24 12:20:41;;;;;;;;;;;;;;;24.20;24.09;100960.72;5033239;27;97820;-81
2021/05/24 12:23:14;;;;;;;;;;;;;;;24.68;23.69;100950.03;5023039;28;98776;-82
2021/05/24 12:25:42;;;;;;;;;;;;;;;24.88;23.85;100957.16;5025448;28;96755;-81
2021/05/24 12:28:09;;;;;;;;;;;;;;;24.90;23.82;100957.06;5026306;28;97082;-81
2021/05/24 12:30:41;;;;;;;;;;;;;;;24.49;23.60;100944.59;5023438;28;99814;-80
2021/05/24 12:33:08;;;;;;;;;;;;;;;24.87;23.30;100943.81;5013263;28;98826;-82